sensor_id;sensor_type;location;lat;lon;timestamp;P1;durP1;ratioP1;P2;durP2;ratioP2
57025;SDS011;43961;52.940;6.834;2022-12-29T00:01:37;13.05;;;11.65;;
57025;SDS011;43961;52.940;6.834;2022-12-29T00:04:03;10.95;;;9.85;;
57025;SDS011;43961;52.940;6.834;2022-12-29T00:06:30;10.95;;;9.90;;
57025;SDS011;43961;52.940;6.834;2022-12-29T00:08:59;11.15;;;10.02;;
57025;SDS011;43961;52.940;6.834;2022-12-29T00:11:25;13.23;;;11.27;;
57025;SDS011;43961;52.940;6.834;2022-12-29T00:13:52;12.55;;;11.27;;
57025;SDS011;43961;52.940;6.834;2022-12-29T00:16:37;12.00;;;10.60;;
57025;SDS011;43961;52.940;6.834;2022-12-29T00:19:05;14.30;;;11.48;;
57025;SDS011;43961;52.940;6.834;2022-12-29T00:21:30;13.30;;;11.45;;
57025;SDS011;43961;52.940;6.834;2022-12-29T00:29:47;13.98;;;11.55;;
57025;SDS011;43961;52.940;6.834;2022-12-29T00:32:32;15.45;;;12.55;;
57025;SDS011;43961;52.940;6.834;2022-12-29T00:35:33;14.85;;;11.93;;
57025;SDS011;43961;52.940;6.834;2022-12-29T00:38:05;15.57;;;12.05;;
57025;SDS011;43961;52.940;6.834;2022-12-29T00:40:51;13.52;;;11.95;;
57025;SDS011;43961;52.940;6.834;2022-12-29T00:43:35;11.73;;;10.55;;
57025;SDS011;43961;52.940;6.834;2022-12-29T00:46:19;13.95;;;10.65;;
57025;SDS011;43961;52.940;6.834;2022-12-29T00:48:45;13.02;;;11.35;;
57025;SDS011;43961;52.940;6.834;2022-12-29T00:51:29;13.15;;;11.13;;
57025;SDS011;43961;52.940;6.834;2022-12-29T00:53:55;13.77;;;12.27;;
57025;SDS011;43961;52.940;6.834;2022-12-29T00:56:21;14.85;;;11.57;;
57025;SDS011;43961;52.940;6.834;2022-12-29T00:58:46;11.40;;;10.20;;
57025;SDS011;43961;52.940;6.834;2022-12-29T01:01:12;14.50;;;9.85;;
57025;SDS011;43961;52.940;6.834;2022-12-29T01:03:38;11.50;;;10.27;;
57025;SDS011;43961;52.940;6.834;2022-12-29T01:06:04;14.32;;;10.52;;
57025;SDS011;43961;52.940;6.834;2022-12-29T01:08:32;11.40;;;10.27;;
57025;SDS011;43961;52.940;6.834;2022-12-29T01:11:06;11.50;;;10.30;;
57025;SDS011;43961;52.940;6.834;2022-12-29T01:13:33;11.70;;;10.55;;
57025;SDS011;43961;52.940;6.834;2022-12-29T01:16:00;10.75;;;9.05;;
57025;SDS011;43961;52.940;6.834;2022-12-29T01:18:26;12.88;;;10.85;;
57025;SDS011;43961;52.940;6.834;2022-12-29T01:21:02;11.85;;;10.13;;
57025;SDS011;43961;52.940;6.834;2022-12-29T01:23:30;9.90;;;9.05;;
57025;SDS011;43961;52.940;6.834;2022-12-29T01:25:56;10.43;;;9.05;;
57025;SDS011;43961;52.940;6.834;2022-12-29T01:28:23;11.57;;;9.63;;
57025;SDS011;43961;52.940;6.834;2022-12-29T01:30:48;10.43;;;8.75;;
57025;SDS011;43961;52.940;6.834;2022-12-29T01:33:14;14.30;;;9.63;;
57025;SDS011;43961;52.940;6.834;2022-12-29T01:35:40;9.48;;;8.57;;
57025;SDS011;43961;52.940;6.834;2022-12-29T01:38:06;9.15;;;7.95;;
57025;SDS011;43961;52.940;6.834;2022-12-29T01:40:32;9.88;;;8.57;;
57025;SDS011;43961;52.940;6.834;2022-12-29T01:42:58;9.38;;;8.40;;
57025;SDS011;43961;52.940;6.834;2022-12-29T01:45:24;9.63;;;8.30;;
57025;SDS011;43961;52.940;6.834;2022-12-29T01:47:50;8.93;;;8.13;;
57025;SDS011;43961;52.940;6.834;2022-12-29T01:50:24;9.40;;;8.40;;
57025;SDS011;43961;52.940;6.834;2022-12-29T01:53:02;9.15;;;7.70;;
57025;SDS011;43961;52.940;6.834;2022-12-29T01:55:36;9.00;;;7.97;;
57025;SDS011;43961;52.940;6.834;2022-12-29T01:58:06;9.18;;;7.45;;
57025;SDS011;43961;52.940;6.834;2022-12-29T02:00:33;7.97;;;7.28;;
57025;SDS011;43961;52.940;6.834;2022-12-29T02:02:59;9.82;;;7.38;;
57025;SDS011;43961;52.940;6.834;2022-12-29T02:05:33;8.95;;;7.88;;
57025;SDS011;43961;52.940;6.834;2022-12-29T02:08:26;7.80;;;7.00;;
57025;SDS011;43961;52.940;6.834;2022-12-29T02:10:54;11.77;;;7.73;;
57025;SDS011;43961;52.940;6.834;2022-12-29T02:13:23;8.13;;;7.40;;
57025;SDS011;43961;52.940;6.834;2022-12-29T02:19:25;8.05;;;7.00;;
57025;SDS011;43961;52.940;6.834;2022-12-29T02:35:17;6.97;;;6.25;;
57025;SDS011;43961;52.940;6.834;2022-12-29T02:46:37;8.75;;;6.50;;
57025;SDS011;43961;52.940;6.834;2022-12-29T02:49:22;8.07;;;6.65;;
57025;SDS011;43961;52.940;6.834;2022-12-29T02:52:07;7.60;;;6.90;;
57025;SDS011;43961;52.940;6.834;2022-12-29T02:54:40;6.95;;;6.25;;
57025;SDS011;43961;52.940;6.834;2022-12-29T02:57:10;9.52;;;6.38;;
57025;SDS011;43961;52.940;6.834;2022-12-29T02:59:38;7.07;;;6.32;;
57025;SDS011;43961;52.940;6.834;2022-12-29T03:02:43;6.63;;;6.03;;
57025;SDS011;43961;52.940;6.834;2022-12-29T03:07:55;9.77;;;6.07;;
57025;SDS011;43961;52.940;6.834;2022-12-29T03:13:34;5.68;;;5.18;;
57025;SDS011;43961;52.940;6.834;2022-12-29T03:19:02;8.93;;;5.70;;
57025;SDS011;43961;52.940;6.834;2022-12-29T03:21:39;6.32;;;5.80;;
57025;SDS011;43961;52.940;6.834;2022-12-29T03:24:33;5.63;;;5.13;;
57025;SDS011;43961;52.940;6.834;2022-12-29T03:27:03;5.32;;;4.72;;
57025;SDS011;43961;52.940;6.834;2022-12-29T03:29:34;4.50;;;4.10;;
57025;SDS011;43961;52.940;6.834;2022-12-29T03:32:04;7.22;;;5.88;;
57025;SDS011;43961;52.940;6.834;2022-12-29T03:34:31;4.80;;;3.88;;
57025;SDS011;43961;52.940;6.834;2022-12-29T03:37:04;4.70;;;4.15;;
57025;SDS011;43961;52.940;6.834;2022-12-29T03:39:34;8.02;;;4.50;;
57025;SDS011;43961;52.940;6.834;2022-12-29T03:42:05;7.03;;;4.57;;
57025;SDS011;43961;52.940;6.834;2022-12-29T03:44:40;6.22;;;4.53;;
57025;SDS011;43961;52.940;6.834;2022-12-29T03:47:07;6.97;;;5.22;;
57025;SDS011;43961;52.940;6.834;2022-12-29T03:49:35;5.05;;;4.57;;
57025;SDS011;43961;52.940;6.834;2022-12-29T03:52:01;6.72;;;4.85;;
57025;SDS011;43961;52.940;6.834;2022-12-29T03:54:27;6.50;;;4.47;;
57025;SDS011;43961;52.940;6.834;2022-12-29T03:56:52;7.25;;;4.25;;
57025;SDS011;43961;52.940;6.834;2022-12-29T03:59:18;7.57;;;4.95;;
57025;SDS011;43961;52.940;6.834;2022-12-29T04:01:43;6.68;;;4.72;;
57025;SDS011;43961;52.940;6.834;2022-12-29T04:04:09;5.05;;;4.55;;
57025;SDS011;43961;52.940;6.834;2022-12-29T04:06:35;4.95;;;4.45;;
57025;SDS011;43961;52.940;6.834;2022-12-29T04:09:01;5.85;;;4.28;;
57025;SDS011;43961;52.940;6.834;2022-12-29T04:11:26;4.60;;;4.20;;
57025;SDS011;43961;52.940;6.834;2022-12-29T04:13:52;4.93;;;4.47;;
57025;SDS011;43961;52.940;6.834;2022-12-29T04:16:19;5.55;;;4.03;;
57025;SDS011;43961;52.940;6.834;2022-12-29T04:18:45;11.63;;;4.85;;
57025;SDS011;43961;52.940;6.834;2022-12-29T04:21:11;4.70;;;2.60;;
57025;SDS011;43961;52.940;6.834;2022-12-29T04:23:37;3.33;;;2.78;;
57025;SDS011;43961;52.940;6.834;2022-12-29T04:26:03;7.32;;;2.60;;
57025;SDS011;43961;52.940;6.834;2022-12-29T04:28:32;2.88;;;2.35;;
57025;SDS011;43961;52.940;6.834;2022-12-29T04:30:59;6.20;;;3.30;;
57025;SDS011;43961;52.940;6.834;2022-12-29T04:33:25;4.03;;;2.22;;
57025;SDS011;43961;52.940;6.834;2022-12-29T04:35:50;2.00;;;1.90;;
57025;SDS011;43961;52.940;6.834;2022-12-29T04:38:20;6.35;;;3.17;;
57025;SDS011;43961;52.940;6.834;2022-12-29T04:40:47;3.05;;;2.53;;
57025;SDS011;43961;52.940;6.834;2022-12-29T04:43:14;12.35;;;2.92;;
57025;SDS011;43961;52.940;6.834;2022-12-29T04:45:44;8.25;;;3.03;;
57025;SDS011;43961;52.940;6.834;2022-12-29T04:48:13;2.65;;;2.38;;
57025;SDS011;43961;52.940;6.834;2022-12-29T04:50:40;6.85;;;3.05;;
57025;SDS011;43961;52.940;6.834;2022-12-29T04:53:06;5.93;;;3.13;;
57025;SDS011;43961;52.940;6.834;2022-12-29T04:55:32;10.40;;;3.95;;
57025;SDS011;43961;52.940;6.834;2022-12-29T04:57:59;7.18;;;3.35;;
57025;SDS011;43961;52.940;6.834;2022-12-29T05:00:25;8.30;;;2.92;;
57025;SDS011;43961;52.940;6.834;2022-12-29T05:02:51;7.10;;;3.25;;
57025;SDS011;43961;52.940;6.834;2022-12-29T05:05:17;5.63;;;2.85;;
57025;SDS011;43961;52.940;6.834;2022-12-29T05:07:43;6.07;;;3.15;;
57025;SDS011;43961;52.940;6.834;2022-12-29T05:10:09;8.82;;;3.17;;
57025;SDS011;43961;52.940;6.834;2022-12-29T05:12:37;19.10;;;4.05;;
57025;SDS011;43961;52.940;6.834;2022-12-29T05:15:04;8.73;;;2.50;;
57025;SDS011;43961;52.940;6.834;2022-12-29T05:17:31;8.77;;;3.70;;
57025;SDS011;43961;52.940;6.834;2022-12-29T05:19:57;15.82;;;3.38;;
57025;SDS011;43961;52.940;6.834;2022-12-29T05:22:23;11.30;;;3.88;;
57025;SDS011;43961;52.940;6.834;2022-12-29T05:24:48;12.20;;;3.22;;
57025;SDS011;43961;52.940;6.834;2022-12-29T05:27:14;10.73;;;3.50;;
57025;SDS011;43961;52.940;6.834;2022-12-29T05:29:40;8.82;;;3.10;;
57025;SDS011;43961;52.940;6.834;2022-12-29T05:32:05;10.13;;;3.22;;
57025;SDS011;43961;52.940;6.834;2022-12-29T05:34:31;7.50;;;3.08;;
57025;SDS011;43961;52.940;6.834;2022-12-29T05:36:57;24.38;;;5.13;;
57025;SDS011;43961;52.940;6.834;2022-12-29T05:39:22;9.60;;;3.50;;
57025;SDS011;43961;52.940;6.834;2022-12-29T05:41:48;12.55;;;3.50;;
57025;SDS011;43961;52.940;6.834;2022-12-29T05:44:14;6.57;;;2.70;;
57025;SDS011;43961;52.940;6.834;2022-12-29T05:46:40;13.73;;;3.15;;
57025;SDS011;43961;52.940;6.834;2022-12-29T05:49:06;5.00;;;2.50;;
57025;SDS011;43961;52.940;6.834;2022-12-29T05:51:32;10.05;;;3.67;;
57025;SDS011;43961;52.940;6.834;2022-12-29T05:53:57;13.52;;;3.53;;
57025;SDS011;43961;52.940;6.834;2022-12-29T05:56:23;5.90;;;3.47;;
57025;SDS011;43961;52.940;6.834;2022-12-29T05:58:49;7.70;;;3.65;;
57025;SDS011;43961;52.940;6.834;2022-12-29T06:01:14;9.70;;;3.88;;
57025;SDS011;43961;52.940;6.834;2022-12-29T06:03:40;5.40;;;3.53;;
57025;SDS011;43961;52.940;6.834;2022-12-29T06:06:06;8.27;;;4.45;;
57025;SDS011;43961;52.940;6.834;2022-12-29T06:08:32;7.90;;;3.50;;
57025;SDS011;43961;52.940;6.834;2022-12-29T06:10:57;9.75;;;5.18;;
57025;SDS011;43961;52.940;6.834;2022-12-29T06:13:23;19.33;;;3.65;;
57025;SDS011;43961;52.940;6.834;2022-12-29T06:15:50;7.55;;;4.20;;
57025;SDS011;43961;52.940;6.834;2022-12-29T06:18:16;5.88;;;3.83;;
57025;SDS011;43961;52.940;6.834;2022-12-29T06:20:41;6.53;;;4.13;;
57025;SDS011;43961;52.940;6.834;2022-12-29T06:23:07;16.75;;;3.97;;
57025;SDS011;43961;52.940;6.834;2022-12-29T06:25:33;9.27;;;4.38;;
57025;SDS011;43961;52.940;6.834;2022-12-29T06:28:01;10.07;;;3.13;;
57025;SDS011;43961;52.940;6.834;2022-12-29T06:30:27;13.18;;;3.63;;
57025;SDS011;43961;52.940;6.834;2022-12-29T06:32:53;8.50;;;3.53;;
57025;SDS011;43961;52.940;6.834;2022-12-29T06:35:19;24.75;;;4.95;;
57025;SDS011;43961;52.940;6.834;2022-12-29T06:37:47;11.13;;;3.95;;
57025;SDS011;43961;52.940;6.834;2022-12-29T06:40:13;9.95;;;3.28;;
57025;SDS011;43961;52.940;6.834;2022-12-29T06:42:39;22.00;;;4.47;;
57025;SDS011;43961;52.940;6.834;2022-12-29T06:45:04;8.30;;;2.90;;
57025;SDS011;43961;52.940;6.834;2022-12-29T06:47:30;12.38;;;3.15;;
57025;SDS011;43961;52.940;6.834;2022-12-29T06:49:56;14.75;;;3.70;;
57025;SDS011;43961;52.940;6.834;2022-12-29T06:52:22;13.98;;;4.07;;
57025;SDS011;43961;52.940;6.834;2022-12-29T06:54:49;9.15;;;3.40;;
57025;SDS011;43961;52.940;6.834;2022-12-29T06:57:15;13.10;;;3.58;;
57025;SDS011;43961;52.940;6.834;2022-12-29T06:59:41;11.90;;;3.45;;
57025;SDS011;43961;52.940;6.834;2022-12-29T07:02:06;10.65;;;3.75;;
57025;SDS011;43961;52.940;6.834;2022-12-29T07:04:34;24.83;;;3.95;;
57025;SDS011;43961;52.940;6.834;2022-12-29T07:06:59;15.93;;;4.47;;
57025;SDS011;43961;52.940;6.834;2022-12-29T07:09:25;21.45;;;4.25;;
57025;SDS011;43961;52.940;6.834;2022-12-29T07:11:51;13.07;;;3.45;;
57025;SDS011;43961;52.940;6.834;2022-12-29T07:14:16;12.20;;;3.03;;
57025;SDS011;43961;52.940;6.834;2022-12-29T07:16:42;8.07;;;2.97;;
57025;SDS011;43961;52.940;6.834;2022-12-29T07:19:08;14.68;;;3.75;;
57025;SDS011;43961;52.940;6.834;2022-12-29T07:21:34;11.27;;;3.67;;
57025;SDS011;43961;52.940;6.834;2022-12-29T07:23:59;10.68;;;4.68;;
57025;SDS011;43961;52.940;6.834;2022-12-29T07:26:25;9.27;;;3.17;;
57025;SDS011;43961;52.940;6.834;2022-12-29T07:28:51;17.83;;;4.13;;
57025;SDS011;43961;52.940;6.834;2022-12-29T07:31:17;10.90;;;3.50;;
57025;SDS011;43961;52.940;6.834;2022-12-29T07:33:45;13.82;;;3.33;;
57025;SDS011;43961;52.940;6.834;2022-12-29T07:36:11;18.02;;;4.03;;
57025;SDS011;43961;52.940;6.834;2022-12-29T07:38:38;16.83;;;3.58;;
57025;SDS011;43961;52.940;6.834;2022-12-29T07:41:04;10.40;;;3.38;;
57025;SDS011;43961;52.940;6.834;2022-12-29T07:43:30;9.40;;;2.92;;
57025;SDS011;43961;52.940;6.834;2022-12-29T07:45:56;10.95;;;3.75;;
57025;SDS011;43961;52.940;6.834;2022-12-29T07:48:22;15.38;;;4.18;;
57025;SDS011;43961;52.940;6.834;2022-12-29T07:50:48;12.63;;;3.63;;
57025;SDS011;43961;52.940;6.834;2022-12-29T07:53:14;10.55;;;3.60;;
57025;SDS011;43961;52.940;6.834;2022-12-29T07:55:40;16.20;;;4.20;;
57025;SDS011;43961;52.940;6.834;2022-12-29T07:58:06;18.90;;;4.47;;
57025;SDS011;43961;52.940;6.834;2022-12-29T08:00:32;32.95;;;4.68;;
57025;SDS011;43961;52.940;6.834;2022-12-29T08:02:58;9.18;;;3.55;;
57025;SDS011;43961;52.940;6.834;2022-12-29T08:05:24;8.68;;;3.65;;
57025;SDS011;43961;52.940;6.834;2022-12-29T08:07:49;20.77;;;3.65;;
57025;SDS011;43961;52.940;6.834;2022-12-29T08:10:15;12.00;;;4.15;;
57025;SDS011;43961;52.940;6.834;2022-12-29T08:12:42;12.00;;;4.07;;
57025;SDS011;43961;52.940;6.834;2022-12-29T08:15:10;11.23;;;4.53;;
57025;SDS011;43961;52.940;6.834;2022-12-29T08:17:36;18.08;;;3.80;;
57025;SDS011;43961;52.940;6.834;2022-12-29T08:20:02;21.05;;;4.50;;
57025;SDS011;43961;52.940;6.834;2022-12-29T08:22:29;8.80;;;3.40;;
57025;SDS011;43961;52.940;6.834;2022-12-29T08:24:54;14.68;;;3.97;;
57025;SDS011;43961;52.940;6.834;2022-12-29T08:27:20;14.38;;;4.32;;
57025;SDS011;43961;52.940;6.834;2022-12-29T08:29:46;11.10;;;4.05;;
57025;SDS011;43961;52.940;6.834;2022-12-29T08:32:12;14.98;;;4.53;;
57025;SDS011;43961;52.940;6.834;2022-12-29T08:34:38;16.70;;;4.80;;
57025;SDS011;43961;52.940;6.834;2022-12-29T08:37:03;17.52;;;4.97;;
57025;SDS011;43961;52.940;6.834;2022-12-29T08:39:29;29.70;;;5.45;;
57025;SDS011;43961;52.940;6.834;2022-12-29T08:41:55;13.82;;;4.30;;
57025;SDS011;43961;52.940;6.834;2022-12-29T08:44:20;15.73;;;4.05;;
57025;SDS011;43961;52.940;6.834;2022-12-29T08:46:46;16.63;;;4.65;;
57025;SDS011;43961;52.940;6.834;2022-12-29T08:49:12;17.25;;;4.30;;
57025;SDS011;43961;52.940;6.834;2022-12-29T08:51:38;17.70;;;5.43;;
57025;SDS011;43961;52.940;6.834;2022-12-29T08:54:03;19.83;;;4.32;;
57025;SDS011;43961;52.940;6.834;2022-12-29T08:56:29;17.50;;;4.32;;
57025;SDS011;43961;52.940;6.834;2022-12-29T08:58:55;19.15;;;4.80;;
57025;SDS011;43961;52.940;6.834;2022-12-29T09:01:20;15.07;;;4.80;;
57025;SDS011;43961;52.940;6.834;2022-12-29T09:03:46;17.83;;;5.43;;
57025;SDS011;43961;52.940;6.834;2022-12-29T09:06:12;11.07;;;4.18;;
57025;SDS011;43961;52.940;6.834;2022-12-29T09:08:39;15.05;;;4.05;;
57025;SDS011;43961;52.940;6.834;2022-12-29T09:11:05;18.33;;;4.30;;
57025;SDS011;43961;52.940;6.834;2022-12-29T09:13:32;17.00;;;5.13;;
57025;SDS011;43961;52.940;6.834;2022-12-29T09:15:58;17.83;;;4.15;;
57025;SDS011;43961;52.940;6.834;2022-12-29T09:18:26;22.23;;;5.22;;
57025;SDS011;43961;52.940;6.834;2022-12-29T09:20:56;20.23;;;4.32;;
57025;SDS011;43961;52.940;6.834;2022-12-29T09:23:26;14.38;;;4.30;;
57025;SDS011;43961;52.940;6.834;2022-12-29T09:25:52;6.50;;;3.30;;
57025;SDS011;43961;52.940;6.834;2022-12-29T09:28:18;11.32;;;3.97;;
57025;SDS011;43961;52.940;6.834;2022-12-29T09:30:44;15.95;;;4.50;;
57025;SDS011;43961;52.940;6.834;2022-12-29T09:33:10;12.00;;;4.47;;
57025;SDS011;43961;52.940;6.834;2022-12-29T09:35:35;16.90;;;4.25;;
57025;SDS011;43961;52.940;6.834;2022-12-29T09:38:01;17.63;;;5.32;;
57025;SDS011;43961;52.940;6.834;2022-12-29T09:45:29;10.25;;;4.10;;
57025;SDS011;43961;52.940;6.834;2022-12-29T09:48:00;14.75;;;4.15;;
57025;SDS011;43961;52.940;6.834;2022-12-29T09:50:28;14.68;;;4.95;;
57025;SDS011;43961;52.940;6.834;2022-12-29T09:53:02;15.70;;;4.20;;
57025;SDS011;43961;52.940;6.834;2022-12-29T09:55:59;9.80;;;4.00;;
57025;SDS011;43961;52.940;6.834;2022-12-29T10:01:22;12.82;;;4.20;;
57025;SDS011;43961;52.940;6.834;2022-12-29T10:04:06;10.75;;;4.75;;
57025;SDS011;43961;52.940;6.834;2022-12-29T10:06:43;13.68;;;5.68;;
57025;SDS011;43961;52.940;6.834;2022-12-29T10:20:15;12.32;;;4.63;;
57025;SDS011;43961;52.940;6.834;2022-12-29T10:23:06;15.88;;;4.82;;
57025;SDS011;43961;52.940;6.834;2022-12-29T10:25:45;15.43;;;4.30;;
57025;SDS011;43961;52.940;6.834;2022-12-29T10:28:22;15.40;;;5.63;;
57025;SDS011;43961;52.940;6.834;2022-12-29T10:31:01;17.95;;;5.13;;
57025;SDS011;43961;52.940;6.834;2022-12-29T10:33:34;17.77;;;5.70;;
57025;SDS011;43961;52.940;6.834;2022-12-29T10:36:08;21.65;;;5.82;;
57025;SDS011;43961;52.940;6.834;2022-12-29T10:39:17;22.88;;;4.15;;
57025;SDS011;43961;52.940;6.834;2022-12-29T10:44:31;22.20;;;6.78;;
57025;SDS011;43961;52.940;6.834;2022-12-29T10:47:00;13.32;;;4.43;;
57025;SDS011;43961;52.940;6.834;2022-12-29T10:49:30;19.38;;;4.55;;
57025;SDS011;43961;52.940;6.834;2022-12-29T10:52:02;14.68;;;4.35;;
57025;SDS011;43961;52.940;6.834;2022-12-29T10:54:33;11.45;;;4.68;;
57025;SDS011;43961;52.940;6.834;2022-12-29T10:57:11;14.57;;;4.78;;
57025;SDS011;43961;52.940;6.834;2022-12-29T10:59:45;12.48;;;3.67;;
57025;SDS011;43961;52.940;6.834;2022-12-29T11:04:58;13.27;;;4.32;;
57025;SDS011;43961;52.940;6.834;2022-12-29T11:07:29;13.10;;;4.47;;
57025;SDS011;43961;52.940;6.834;2022-12-29T11:09:55;11.15;;;4.43;;
57025;SDS011;43961;52.940;6.834;2022-12-29T11:12:40;13.18;;;4.25;;
57025;SDS011;43961;52.940;6.834;2022-12-29T11:17:44;14.82;;;4.05;;
57025;SDS011;43961;52.940;6.834;2022-12-29T11:22:57;7.75;;;4.05;;
57025;SDS011;43961;52.940;6.834;2022-12-29T11:25:23;11.93;;;4.57;;
57025;SDS011;43961;52.940;6.834;2022-12-29T11:28:23;14.63;;;4.22;;
57025;SDS011;43961;52.940;6.834;2022-12-29T11:30:41;15.38;;;5.72;;
57025;SDS011;43961;52.940;6.834;2022-12-29T11:33:08;12.30;;;3.95;;
57025;SDS011;43961;52.940;6.834;2022-12-29T11:35:43;8.43;;;4.18;;
57025;SDS011;43961;52.940;6.834;2022-12-29T11:38:19;10.18;;;4.07;;
57025;SDS011;43961;52.940;6.834;2022-12-29T11:40:47;12.90;;;4.97;;
57025;SDS011;43961;52.940;6.834;2022-12-29T11:43:33;16.85;;;4.75;;
57025;SDS011;43961;52.940;6.834;2022-12-29T11:46:03;7.43;;;3.75;;
57025;SDS011;43961;52.940;6.834;2022-12-29T11:48:33;12.52;;;5.35;;
57025;SDS011;43961;52.940;6.834;2022-12-29T11:51:04;15.82;;;4.93;;
57025;SDS011;43961;52.940;6.834;2022-12-29T11:56:12;22.52;;;5.22;;
57025;SDS011;43961;52.940;6.834;2022-12-29T11:58:40;12.10;;;4.28;;
57025;SDS011;43961;52.940;6.834;2022-12-29T12:01:17;15.75;;;5.07;;
57025;SDS011;43961;52.940;6.834;2022-12-29T12:06:20;15.88;;;5.70;;
57025;SDS011;43961;52.940;6.834;2022-12-29T12:08:58;18.08;;;5.28;;
57025;SDS011;43961;52.940;6.834;2022-12-29T12:11:45;17.80;;;5.55;;
57025;SDS011;43961;52.940;6.834;2022-12-29T12:14:19;15.18;;;5.00;;
57025;SDS011;43961;52.940;6.834;2022-12-29T12:16:55;25.25;;;6.22;;
57025;SDS011;43961;52.940;6.834;2022-12-29T12:19:32;13.57;;;5.63;;
57025;SDS011;43961;52.940;6.834;2022-12-29T12:22:13;19.65;;;5.93;;
57025;SDS011;43961;52.940;6.834;2022-12-29T12:24:49;17.27;;;5.30;;
57025;SDS011;43961;52.940;6.834;2022-12-29T12:35:41;24.75;;;5.90;;
57025;SDS011;43961;52.940;6.834;2022-12-29T12:38:21;15.25;;;5.88;;
57025;SDS011;43961;52.940;6.834;2022-12-29T12:41:09;16.73;;;5.47;;
57025;SDS011;43961;52.940;6.834;2022-12-29T12:46:42;15.60;;;5.30;;
57025;SDS011;43961;52.940;6.834;2022-12-29T12:52:25;28.80;;;5.30;;
57025;SDS011;43961;52.940;6.834;2022-12-29T12:55:36;19.65;;;6.80;;
57025;SDS011;43961;52.940;6.834;2022-12-29T13:00:48;18.58;;;6.03;;
57025;SDS011;43961;52.940;6.834;2022-12-29T13:10:16;23.25;;;5.55;;
57025;SDS011;43961;52.940;6.834;2022-12-29T13:20:38;25.20;;;6.00;;
57025;SDS011;43961;52.940;6.834;2022-12-29T13:23:21;39.53;;;7.28;;
57025;SDS011;43961;52.940;6.834;2022-12-29T13:26:06;22.00;;;7.07;;
57025;SDS011;43961;52.940;6.834;2022-12-29T13:31:33;21.20;;;4.07;;
57025;SDS011;43961;52.940;6.834;2022-12-29T13:36:52;15.90;;;5.80;;
57025;SDS011;43961;52.940;6.834;2022-12-29T13:39:37;22.67;;;4.85;;
57025;SDS011;43961;52.940;6.834;2022-12-29T13:42:06;13.70;;;4.03;;
57025;SDS011;43961;52.940;6.834;2022-12-29T13:44:37;19.48;;;4.00;;
57025;SDS011;43961;52.940;6.834;2022-12-29T13:47:51;22.00;;;5.55;;
57025;SDS011;43961;52.940;6.834;2022-12-29T13:50:19;22.63;;;5.38;;
57025;SDS011;43961;52.940;6.834;2022-12-29T13:55:32;24.63;;;5.50;;
57025;SDS011;43961;52.940;6.834;2022-12-29T13:58:09;18.08;;;5.30;;
57025;SDS011;43961;52.940;6.834;2022-12-29T14:00:53;24.13;;;5.22;;
57025;SDS011;43961;52.940;6.834;2022-12-29T14:09:03;37.30;;;5.53;;
57025;SDS011;43961;52.940;6.834;2022-12-29T14:11:36;16.00;;;4.97;;
57025;SDS011;43961;52.940;6.834;2022-12-29T14:14:17;18.23;;;5.40;;
57025;SDS011;43961;52.940;6.834;2022-12-29T14:16:46;20.83;;;4.88;;
57025;SDS011;43961;52.940;6.834;2022-12-29T14:19:14;24.92;;;4.93;;
57025;SDS011;43961;52.940;6.834;2022-12-29T14:29:48;22.48;;;5.53;;
57025;SDS011;43961;52.940;6.834;2022-12-29T14:34:51;20.52;;;4.85;;
57025;SDS011;43961;52.940;6.834;2022-12-29T14:40:02;17.52;;;4.70;;
57025;SDS011;43961;52.940;6.834;2022-12-29T14:42:48;22.58;;;4.50;;
57025;SDS011;43961;52.940;6.834;2022-12-29T14:47:45;14.27;;;4.13;;
57025;SDS011;43961;52.940;6.834;2022-12-29T14:56:12;14.95;;;4.50;;
57025;SDS011;43961;52.940;6.834;2022-12-29T14:59:00;16.92;;;5.10;;
57025;SDS011;43961;52.940;6.834;2022-12-29T15:01:45;8.35;;;3.25;;
57025;SDS011;43961;52.940;6.834;2022-12-29T15:04:30;17.52;;;4.20;;
57025;SDS011;43961;52.940;6.834;2022-12-29T15:06:57;12.38;;;4.28;;
57025;SDS011;43961;52.940;6.834;2022-12-29T15:09:35;12.70;;;3.80;;
57025;SDS011;43961;52.940;6.834;2022-12-29T15:14:55;13.32;;;4.43;;
57025;SDS011;43961;52.940;6.834;2022-12-29T15:17:34;11.98;;;4.35;;
57025;SDS011;43961;52.940;6.834;2022-12-29T15:20:49;12.02;;;4.70;;
57025;SDS011;43961;52.940;6.834;2022-12-29T15:22:54;10.82;;;4.18;;
57025;SDS011;43961;52.940;6.834;2022-12-29T15:25:22;12.48;;;3.97;;
57025;SDS011;43961;52.940;6.834;2022-12-29T15:27:51;16.17;;;4.47;;
57025;SDS011;43961;52.940;6.834;2022-12-29T15:30:20;14.18;;;4.68;;
57025;SDS011;43961;52.940;6.834;2022-12-29T15:32:46;22.77;;;6.20;;
57025;SDS011;43961;52.940;6.834;2022-12-29T15:37:56;12.65;;;4.60;;
57025;SDS011;43961;52.940;6.834;2022-12-29T15:40:30;18.80;;;4.22;;
57025;SDS011;43961;52.940;6.834;2022-12-29T15:45:55;24.35;;;5.38;;
57025;SDS011;43961;52.940;6.834;2022-12-29T15:48:22;22.83;;;5.10;;
57025;SDS011;43961;52.940;6.834;2022-12-29T15:50:49;11.10;;;4.60;;
57025;SDS011;43961;52.940;6.834;2022-12-29T15:53:28;15.35;;;5.10;;
57025;SDS011;43961;52.940;6.834;2022-12-29T15:55:58;26.73;;;6.40;;
57025;SDS011;43961;52.940;6.834;2022-12-29T15:58:39;18.08;;;5.90;;
57025;SDS011;43961;52.940;6.834;2022-12-29T16:01:16;18.52;;;5.88;;
57025;SDS011;43961;52.940;6.834;2022-12-29T16:03:44;25.02;;;5.50;;
57025;SDS011;43961;52.940;6.834;2022-12-29T16:09:05;17.55;;;5.70;;
57025;SDS011;43961;52.940;6.834;2022-12-29T16:11:40;15.57;;;5.60;;
57025;SDS011;43961;52.940;6.834;2022-12-29T16:14:15;21.00;;;6.47;;
57025;SDS011;43961;52.940;6.834;2022-12-29T16:16:43;18.98;;;5.00;;
57025;SDS011;43961;52.940;6.834;2022-12-29T16:21:36;12.18;;;5.22;;
57025;SDS011;43961;52.940;6.834;2022-12-29T16:24:05;30.15;;;6.53;;
57025;SDS011;43961;52.940;6.834;2022-12-29T16:26:33;17.05;;;4.88;;
57025;SDS011;43961;52.940;6.834;2022-12-29T16:29:00;21.52;;;6.40;;
57025;SDS011;43961;52.940;6.834;2022-12-29T16:31:36;17.08;;;5.15;;
57025;SDS011;43961;52.940;6.834;2022-12-29T16:34:31;22.42;;;5.70;;
57025;SDS011;43961;52.940;6.834;2022-12-29T16:39:55;19.48;;;6.03;;
57025;SDS011;43961;52.940;6.834;2022-12-29T16:42:43;10.43;;;4.63;;
57025;SDS011;43961;52.940;6.834;2022-12-29T16:50:32;13.40;;;5.78;;
57025;SDS011;43961;52.940;6.834;2022-12-29T16:53:00;10.30;;;4.45;;
57025;SDS011;43961;52.940;6.834;2022-12-29T16:55:28;10.80;;;5.10;;
57025;SDS011;43961;52.940;6.834;2022-12-29T16:57:54;9.55;;;5.05;;
57025;SDS011;43961;52.940;6.834;2022-12-29T17:00:32;10.80;;;4.20;;
57025;SDS011;43961;52.940;6.834;2022-12-29T17:03:00;6.03;;;2.50;;
57025;SDS011;43961;52.940;6.834;2022-12-29T17:05:29;3.42;;;1.92;;
57025;SDS011;43961;52.940;6.834;2022-12-29T17:07:54;3.47;;;1.50;;
57025;SDS011;43961;52.940;6.834;2022-12-29T17:10:25;2.45;;;1.20;;
57025;SDS011;43961;52.940;6.834;2022-12-29T17:13:11;3.00;;;1.80;;
57025;SDS011;43961;52.940;6.834;2022-12-29T17:15:37;4.10;;;2.13;;
57025;SDS011;43961;52.940;6.834;2022-12-29T17:18:03;2.38;;;1.98;;
57025;SDS011;43961;52.940;6.834;2022-12-29T17:20:30;3.70;;;2.15;;
57025;SDS011;43961;52.940;6.834;2022-12-29T17:22:57;6.13;;;2.45;;
57025;SDS011;43961;52.940;6.834;2022-12-29T17:25:34;7.32;;;2.10;;
57025;SDS011;43961;52.940;6.834;2022-12-29T17:28:02;9.07;;;3.60;;
57025;SDS011;43961;52.940;6.834;2022-12-29T17:30:38;5.93;;;2.47;;
57025;SDS011;43961;52.940;6.834;2022-12-29T17:33:05;2.50;;;2.30;;
57025;SDS011;43961;52.940;6.834;2022-12-29T17:35:34;2.25;;;1.80;;
57025;SDS011;43961;52.940;6.834;2022-12-29T17:38:00;5.78;;;3.10;;
57025;SDS011;43961;52.940;6.834;2022-12-29T17:40:27;6.22;;;2.65;;
57025;SDS011;43961;52.940;6.834;2022-12-29T17:42:55;4.90;;;2.83;;